sensor_id;sensor_type;location;lat;lon;timestamp;temperature;humidity
19966;DHT22;10144;50.874;4.762;2023-08-21T00:00:19;21.50;99.90
19966;DHT22;10144;50.874;4.762;2023-08-21T00:02:45;21.30;99.90
19966;DHT22;10144;50.874;4.762;2023-08-21T00:05:11;21.30;99.90
19966;DHT22;10144;50.874;4.762;2023-08-21T00:07:37;21.20;99.90
19966;DHT22;10144;50.874;4.762;2023-08-21T00:10:04;21.10;99.90
19966;DHT22;10144;50.874;4.762;2023-08-21T00:12:34;21.10;99.90
19966;DHT22;10144;50.874;4.762;2023-08-21T00:15:03;21.10;99.90
19966;DHT22;10144;50.874;4.762;2023-08-21T00:17:29;21.10;99.90
19966;DHT22;10144;50.874;4.762;2023-08-21T00:19:55;21.10;99.90
19966;DHT22;10144;50.874;4.762;2023-08-21T00:22:22;21.10;99.90
19966;DHT22;10144;50.874;4.762;2023-08-21T00:24:49;21.10;99.90
19966;DHT22;10144;50.874;4.762;2023-08-21T00:27:15;20.90;99.90
19966;DHT22;10144;50.874;4.762;2023-08-21T00:29:42;20.90;99.90
19966;DHT22;10144;50.874;4.762;2023-08-21T00:32:08;20.80;99.90
19966;DHT22;10144;50.874;4.762;2023-08-21T00:34:34;20.80;99.90
19966;DHT22;10144;50.874;4.762;2023-08-21T00:37:00;20.80;99.90
19966;DHT22;10144;50.874;4.762;2023-08-21T00:39:26;20.80;99.90
19966;DHT22;10144;50.874;4.762;2023-08-21T00:41:58;20.90;99.90
19966;DHT22;10144;50.874;4.762;2023-08-21T00:44:24;20.90;99.90
19966;DHT22;10144;50.874;4.762;2023-08-21T00:46:49;20.90;99.90
19966;DHT22;10144;50.874;4.762;2023-08-21T00:49:15;20.90;99.90
19966;DHT22;10144;50.874;4.762;2023-08-21T00:51:41;20.90;99.90
19966;DHT22;10144;50.874;4.762;2023-08-21T00:54:07;20.90;99.90
19966;DHT22;10144;50.874;4.762;2023-08-21T00:56:33;21.00;99.90
19966;DHT22;10144;50.874;4.762;2023-08-21T00:59:01;21.00;99.90
19966;DHT22;10144;50.874;4.762;2023-08-21T01:01:30;20.90;99.90
19966;DHT22;10144;50.874;4.762;2023-08-21T01:03:56;20.80;99.90
19966;DHT22;10144;50.874;4.762;2023-08-21T01:06:22;20.80;99.90
19966;DHT22;10144;50.874;4.762;2023-08-21T01:12:15;20.90;99.90
19966;DHT22;10144;50.874;4.762;2023-08-21T01:15:04;20.80;99.90
19966;DHT22;10144;50.874;4.762;2023-08-21T01:17:36;20.60;99.90
19966;DHT22;10144;50.874;4.762;2023-08-21T01:20:07;20.50;99.90
19966;DHT22;10144;50.874;4.762;2023-08-21T01:22:39;20.40;99.90
19966;DHT22;10144;50.874;4.762;2023-08-21T01:25:06;20.30;99.90
19966;DHT22;10144;50.874;4.762;2023-08-21T01:27:33;20.40;99.90
19966;DHT22;10144;50.874;4.762;2023-08-21T01:30:02;20.40;99.90
19966;DHT22;10144;50.874;4.762;2023-08-21T01:35:20;20.40;99.90
19966;DHT22;10144;50.874;4.762;2023-08-21T01:37:52;20.40;99.90
19966;DHT22;10144;50.874;4.762;2023-08-21T01:40:24;20.40;99.90
19966;DHT22;10144;50.874;4.762;2023-08-21T01:42:53;20.40;99.90
19966;DHT22;10144;50.874;4.762;2023-08-21T01:45:22;20.40;99.90
19966;DHT22;10144;50.874;4.762;2023-08-21T01:47:54;20.30;99.90
19966;DHT22;10144;50.874;4.762;2023-08-21T01:50:20;20.30;99.90
19966;DHT22;10144;50.874;4.762;2023-08-21T01:52:46;20.30;99.90
19966;DHT22;10144;50.874;4.762;2023-08-21T01:55:12;20.30;99.90
19966;DHT22;10144;50.874;4.762;2023-08-21T01:57:43;20.10;99.90
19966;DHT22;10144;50.874;4.762;2023-08-21T02:00:12;20.10;99.90
19966;DHT22;10144;50.874;4.762;2023-08-21T02:02:39;20.10;99.90
19966;DHT22;10144;50.874;4.762;2023-08-21T02:05:05;20.10;99.90
19966;DHT22;10144;50.874;4.762;2023-08-21T02:07:33;20.10;99.90
19966;DHT22;10144;50.874;4.762;2023-08-21T02:10:01;20.00;99.90
19966;DHT22;10144;50.874;4.762;2023-08-21T02:12:28;19.90;99.90
19966;DHT22;10144;50.874;4.762;2023-08-21T02:14:54;19.90;99.90
19966;DHT22;10144;50.874;4.762;2023-08-21T02:17:21;19.80;99.90
19966;DHT22;10144;50.874;4.762;2023-08-21T02:19:48;19.80;99.90
19966;DHT22;10144;50.874;4.762;2023-08-21T02:22:17;19.80;99.90
19966;DHT22;10144;50.874;4.762;2023-08-21T02:24:43;19.80;99.90
19966;DHT22;10144;50.874;4.762;2023-08-21T02:27:08;19.70;99.90
19966;DHT22;10144;50.874;4.762;2023-08-21T02:29:35;19.70;99.90
19966;DHT22;10144;50.874;4.762;2023-08-21T02:32:01;19.80;99.90
19966;DHT22;10144;50.874;4.762;2023-08-21T02:34:27;19.60;99.90
19966;DHT22;10144;50.874;4.762;2023-08-21T02:36:58;19.60;99.90
19966;DHT22;10144;50.874;4.762;2023-08-21T02:39:30;19.70;99.90
19966;DHT22;10144;50.874;4.762;2023-08-21T02:41:59;19.60;99.90
19966;DHT22;10144;50.874;4.762;2023-08-21T02:44:24;19.60;99.90
19966;DHT22;10144;50.874;4.762;2023-08-21T02:46:50;19.60;99.90
19966;DHT22;10144;50.874;4.762;2023-08-21T02:49:19;19.40;99.90
19966;DHT22;10144;50.874;4.762;2023-08-21T02:51:45;19.40;99.90
19966;DHT22;10144;50.874;4.762;2023-08-21T02:54:11;19.40;99.90
19966;DHT22;10144;50.874;4.762;2023-08-21T02:56:36;19.40;99.90
19966;DHT22;10144;50.874;4.762;2023-08-21T02:59:08;19.50;99.90
19966;DHT22;10144;50.874;4.762;2023-08-21T03:01:36;19.50;99.90
19966;DHT22;10144;50.874;4.762;2023-08-21T03:04:04;19.50;99.90
19966;DHT22;10144;50.874;4.762;2023-08-21T03:06:35;19.40;99.90
19966;DHT22;10144;50.874;4.762;2023-08-21T03:09:04;19.40;99.90
19966;DHT22;10144;50.874;4.762;2023-08-21T03:11:30;19.40;99.90
19966;DHT22;10144;50.874;4.762;2023-08-21T03:13:55;19.40;99.90
19966;DHT22;10144;50.874;4.762;2023-08-21T03:16:24;19.30;99.90
19966;DHT22;10144;50.874;4.762;2023-08-21T03:19:01;19.30;99.90
19966;DHT22;10144;50.874;4.762;2023-08-21T03:21:29;19.10;99.90
19966;DHT22;10144;50.874;4.762;2023-08-21T03:23:58;19.10;99.90
19966;DHT22;10144;50.874;4.762;2023-08-21T03:26:28;19.10;99.90
19966;DHT22;10144;50.874;4.762;2023-08-21T03:28:54;19.10;99.90
19966;DHT22;10144;50.874;4.762;2023-08-21T03:31:26;19.10;99.90
19966;DHT22;10144;50.874;4.762;2023-08-21T03:33:57;19.10;99.90
19966;DHT22;10144;50.874;4.762;2023-08-21T03:36:24;19.20;99.90
19966;DHT22;10144;50.874;4.762;2023-08-21T03:39:03;19.20;99.90
19966;DHT22;10144;50.874;4.762;2023-08-21T03:41:31;19.20;99.90
19966;DHT22;10144;50.874;4.762;2023-08-21T03:44:03;19.20;99.90
19966;DHT22;10144;50.874;4.762;2023-08-21T03:46:30;19.10;99.90
19966;DHT22;10144;50.874;4.762;2023-08-21T03:48:59;19.10;99.90
19966;DHT22;10144;50.874;4.762;2023-08-21T03:51:24;19.10;99.90
19966;DHT22;10144;50.874;4.762;2023-08-21T03:53:50;19.00;99.90
19966;DHT22;10144;50.874;4.762;2023-08-21T03:56:18;19.10;99.90
19966;DHT22;10144;50.874;4.762;2023-08-21T03:58:47;19.20;99.90
19966;DHT22;10144;50.874;4.762;2023-08-21T04:01:13;19.20;99.90
19966;DHT22;10144;50.874;4.762;2023-08-21T04:03:39;19.20;99.90
19966;DHT22;10144;50.874;4.762;2023-08-21T04:06:04;19.20;99.90
19966;DHT22;10144;50.874;4.762;2023-08-21T04:08:31;19.20;99.90
19966;DHT22;10144;50.874;4.762;2023-08-21T04:10:58;19.10;99.90
19966;DHT22;10144;50.874;4.762;2023-08-21T04:13:26;19.10;99.90
19966;DHT22;10144;50.874;4.762;2023-08-21T04:15:54;19.10;99.90
19966;DHT22;10144;50.874;4.762;2023-08-21T04:18:20;19.10;99.90
19966;DHT22;10144;50.874;4.762;2023-08-21T04:20:49;19.10;99.90
19966;DHT22;10144;50.874;4.762;2023-08-21T04:23:15;19.00;99.90
19966;DHT22;10144;50.874;4.762;2023-08-21T04:25:41;19.00;99.90
19966;DHT22;10144;50.874;4.762;2023-08-21T04:28:08;19.00;99.90
19966;DHT22;10144;50.874;4.762;2023-08-21T04:30:36;19.00;99.90
19966;DHT22;10144;50.874;4.762;2023-08-21T04:33:02;19.00;99.90
19966;DHT22;10144;50.874;4.762;2023-08-21T04:35:28;19.00;99.90
19966;DHT22;10144;50.874;4.762;2023-08-21T04:37:55;19.10;99.90
19966;DHT22;10144;50.874;4.762;2023-08-21T04:40:20;19.10;99.90
19966;DHT22;10144;50.874;4.762;2023-08-21T04:42:53;19.00;99.90
19966;DHT22;10144;50.874;4.762;2023-08-21T04:45:19;19.00;99.90
19966;DHT22;10144;50.874;4.762;2023-08-21T04:47:44;18.90;99.90
19966;DHT22;10144;50.874;4.762;2023-08-21T04:50:12;18.90;99.90
19966;DHT22;10144;50.874;4.762;2023-08-21T04:52:37;18.90;99.90
19966;DHT22;10144;50.874;4.762;2023-08-21T04:55:04;19.00;99.90
19966;DHT22;10144;50.874;4.762;2023-08-21T04:57:30;19.00;99.90
19966;DHT22;10144;50.874;4.762;2023-08-21T04:59:56;19.00;99.90
19966;DHT22;10144;50.874;4.762;2023-08-21T05:02:22;18.90;99.90
19966;DHT22;10144;50.874;4.762;2023-08-21T05:04:47;18.90;99.90
19966;DHT22;10144;50.874;4.762;2023-08-21T05:07:13;19.00;99.90
19966;DHT22;10144;50.874;4.762;2023-08-21T05:09:40;19.00;99.90
19966;DHT22;10144;50.874;4.762;2023-08-21T05:12:14;19.00;99.90
19966;DHT22;10144;50.874;4.762;2023-08-21T05:14:42;19.00;99.90
19966;DHT22;10144;50.874;4.762;2023-08-21T05:17:10;19.20;99.90
19966;DHT22;10144;50.874;4.762;2023-08-21T05:19:36;19.20;99.90
19966;DHT22;10144;50.874;4.762;2023-08-21T05:22:02;19.20;99.90
19966;DHT22;10144;50.874;4.762;2023-08-21T05:24:28;19.30;99.90
19966;DHT22;10144;50.874;4.762;2023-08-21T05:26:54;19.40;99.90
19966;DHT22;10144;50.874;4.762;2023-08-21T05:29:20;19.50;99.90
19966;DHT22;10144;50.874;4.762;2023-08-21T05:31:46;19.50;99.90
19966;DHT22;10144;50.874;4.762;2023-08-21T05:34:14;19.50;99.90
19966;DHT22;10144;50.874;4.762;2023-08-21T05:36:40;19.40;99.90
19966;DHT22;10144;50.874;4.762;2023-08-21T05:39:05;19.40;99.90
19966;DHT22;10144;50.874;4.762;2023-08-21T05:41:32;19.50;99.90
19966;DHT22;10144;50.874;4.762;2023-08-21T05:43:58;19.80;99.90
19966;DHT22;10144;50.874;4.762;2023-08-21T05:46:24;20.20;99.90
19966;DHT22;10144;50.874;4.762;2023-08-21T05:48:50;20.70;99.90
19966;DHT22;10144;50.874;4.762;2023-08-21T05:51:16;21.20;99.90
19966;DHT22;10144;50.874;4.762;2023-08-21T05:53:41;21.70;99.90
19966;DHT22;10144;50.874;4.762;2023-08-21T05:56:07;22.20;99.90
19966;DHT22;10144;50.874;4.762;2023-08-21T05:58:32;22.70;99.90
19966;DHT22;10144;50.874;4.762;2023-08-21T06:00:59;23.10;99.90
19966;DHT22;10144;50.874;4.762;2023-08-21T06:03:24;23.40;99.90
19966;DHT22;10144;50.874;4.762;2023-08-21T06:05:50;23.70;99.90
19966;DHT22;10144;50.874;4.762;2023-08-21T06:08:16;23.90;99.90
19966;DHT22;10144;50.874;4.762;2023-08-21T06:10:41;24.20;99.90
19966;DHT22;10144;50.874;4.762;2023-08-21T06:13:08;24.40;99.90
19966;DHT22;10144;50.874;4.762;2023-08-21T06:15:35;24.90;99.90
19966;DHT22;10144;50.874;4.762;2023-08-21T06:18:02;25.10;99.90
19966;DHT22;10144;50.874;4.762;2023-08-21T06:20:30;25.10;99.90
19966;DHT22;10144;50.874;4.762;2023-08-21T06:22:55;25.30;99.90
19966;DHT22;10144;50.874;4.762;2023-08-21T06:25:23;25.40;99.90
19966;DHT22;10144;50.874;4.762;2023-08-21T06:27:49;25.60;99.90
19966;DHT22;10144;50.874;4.762;2023-08-21T06:30:14;25.80;99.90
19966;DHT22;10144;50.874;4.762;2023-08-21T06:32:44;26.10;99.90
19966;DHT22;10144;50.874;4.762;2023-08-21T06:35:10;26.30;99.90
19966;DHT22;10144;50.874;4.762;2023-08-21T06:37:35;26.50;99.90
19966;DHT22;10144;50.874;4.762;2023-08-21T06:40:01;26.80;99.90
19966;DHT22;10144;50.874;4.762;2023-08-21T06:42:29;26.80;99.90
19966;DHT22;10144;50.874;4.762;2023-08-21T06:44:57;27.00;99.90
19966;DHT22;10144;50.874;4.762;2023-08-21T06:47:25;27.10;99.90
19966;DHT22;10144;50.874;4.762;2023-08-21T06:49:51;27.20;99.90
19966;DHT22;10144;50.874;4.762;2023-08-21T06:52:17;27.20;99.90
19966;DHT22;10144;50.874;4.762;2023-08-21T06:54:44;27.60;99.90
19966;DHT22;10144;50.874;4.762;2023-08-21T06:57:10;27.90;99.90
19966;DHT22;10144;50.874;4.762;2023-08-21T06:59:35;28.00;99.90
19966;DHT22;10144;50.874;4.762;2023-08-21T07:02:05;28.10;99.90
19966;DHT22;10144;50.874;4.762;2023-08-21T07:04:32;28.20;99.90
19966;DHT22;10144;50.874;4.762;2023-08-21T07:07:01;28.30;99.90
19966;DHT22;10144;50.874;4.762;2023-08-21T07:09:27;28.60;99.90
19966;DHT22;10144;50.874;4.762;2023-08-21T07:11:52;28.80;99.90
19966;DHT22;10144;50.874;4.762;2023-08-21T07:14:18;29.20;99.90
19966;DHT22;10144;50.874;4.762;2023-08-21T07:16:44;29.10;99.90
19966;DHT22;10144;50.874;4.762;2023-08-21T07:19:10;29.00;99.90
19966;DHT22;10144;50.874;4.762;2023-08-21T07:21:35;29.20;99.90
19966;DHT22;10144;50.874;4.762;2023-08-21T07:24:03;29.40;99.90
19966;DHT22;10144;50.874;4.762;2023-08-21T07:26:30;29.30;99.90
19966;DHT22;10144;50.874;4.762;2023-08-21T07:28:56;29.50;99.90
19966;DHT22;10144;50.874;4.762;2023-08-21T07:31:22;29.80;99.90
19966;DHT22;10144;50.874;4.762;2023-08-21T07:33:48;29.80;99.90
19966;DHT22;10144;50.874;4.762;2023-08-21T07:36:14;30.10;99.90
19966;DHT22;10144;50.874;4.762;2023-08-21T07:38:43;30.40;99.90
19966;DHT22;10144;50.874;4.762;2023-08-21T07:41:10;30.80;99.90
19966;DHT22;10144;50.874;4.762;2023-08-21T07:43:37;30.90;99.90
19966;DHT22;10144;50.874;4.762;2023-08-21T07:46:07;30.70;99.90
19966;DHT22;10144;50.874;4.762;2023-08-21T07:48:35;30.80;99.90
19966;DHT22;10144;50.874;4.762;2023-08-21T07:51:01;30.90;99.90
19966;DHT22;10144;50.874;4.762;2023-08-21T07:53:27;31.20;99.90
19966;DHT22;10144;50.874;4.762;2023-08-21T07:55:53;31.00;99.90
19966;DHT22;10144;50.874;4.762;2023-08-21T07:58:19;30.90;99.90
19966;DHT22;10144;50.874;4.762;2023-08-21T08:00:45;30.80;99.90
19966;DHT22;10144;50.874;4.762;2023-08-21T08:03:11;31.00;99.90
19966;DHT22;10144;50.874;4.762;2023-08-21T08:05:39;31.00;99.90
19966;DHT22;10144;50.874;4.762;2023-08-21T08:08:06;31.00;99.90
19966;DHT22;10144;50.874;4.762;2023-08-21T08:10:37;31.20;99.90
19966;DHT22;10144;50.874;4.762;2023-08-21T08:13:05;31.20;99.90
19966;DHT22;10144;50.874;4.762;2023-08-21T08:15:31;31.20;99.90
19966;DHT22;10144;50.874;4.762;2023-08-21T08:17:57;31.40;99.90
19966;DHT22;10144;50.874;4.762;2023-08-21T08:20:22;31.70;99.90
19966;DHT22;10144;50.874;4.762;2023-08-21T08:22:48;31.40;99.90
19966;DHT22;10144;50.874;4.762;2023-08-21T08:25:14;31.10;99.90
19966;DHT22;10144;50.874;4.762;2023-08-21T08:27:40;31.20;99.90
19966;DHT22;10144;50.874;4.762;2023-08-21T08:30:06;31.70;99.90
19966;DHT22;10144;50.874;4.762;2023-08-21T08:32:32;31.80;99.90
19966;DHT22;10144;50.874;4.762;2023-08-21T08:34:58;32.20;99.90
19966;DHT22;10144;50.874;4.762;2023-08-21T08:37:23;32.30;99.90
19966;DHT22;10144;50.874;4.762;2023-08-21T08:39:49;32.20;99.90
19966;DHT22;10144;50.874;4.762;2023-08-21T08:42:15;32.70;99.90
19966;DHT22;10144;50.874;4.762;2023-08-21T08:44:42;32.70;99.90
19966;DHT22;10144;50.874;4.762;2023-08-21T08:47:13;33.00;1.00
19966;DHT22;10144;50.874;4.762;2023-08-21T08:49:40;33.40;1.00
19966;DHT22;10144;50.874;4.762;2023-08-21T08:52:05;33.30;20.10
19966;DHT22;10144;50.874;4.762;2023-08-21T08:54:31;33.80;1.00
19966;DHT22;10144;50.874;4.762;2023-08-21T08:56:58;34.30;1.00
19966;DHT22;10144;50.874;4.762;2023-08-21T08:59:24;34.40;1.00
19966;DHT22;10144;50.874;4.762;2023-08-21T09:01:49;34.30;1.00
19966;DHT22;10144;50.874;4.762;2023-08-21T09:04:15;35.00;1.00
19966;DHT22;10144;50.874;4.762;2023-08-21T09:06:41;35.10;1.00
19966;DHT22;10144;50.874;4.762;2023-08-21T09:09:08;34.70;99.90
19966;DHT22;10144;50.874;4.762;2023-08-21T09:11:39;34.40;99.90
19966;DHT22;10144;50.874;4.762;2023-08-21T09:14:07;34.30;99.90
19966;DHT22;10144;50.874;4.762;2023-08-21T09:16:32;34.00;1.00
19966;DHT22;10144;50.874;4.762;2023-08-21T09:18:58;33.90;1.00
19966;DHT22;10144;50.874;4.762;2023-08-21T09:21:25;33.70;1.00
19966;DHT22;10144;50.874;4.762;2023-08-21T09:24:02;33.80;1.00
19966;DHT22;10144;50.874;4.762;2023-08-21T09:26:31;34.30;1.00
19966;DHT22;10144;50.874;4.762;2023-08-21T09:29:03;33.70;99.90
19966;DHT22;10144;50.874;4.762;2023-08-21T09:31:31;33.30;1.00
19966;DHT22;10144;50.874;4.762;2023-08-21T09:33:59;33.60;1.00
19966;DHT22;10144;50.874;4.762;2023-08-21T09:36:26;33.50;99.90
19966;DHT22;10144;50.874;4.762;2023-08-21T09:38:52;33.20;99.90
19966;DHT22;10144;50.874;4.762;2023-08-21T09:41:22;32.90;1.00
19966;DHT22;10144;50.874;4.762;2023-08-21T09:43:48;33.10;1.00
19966;DHT22;10144;50.874;4.762;2023-08-21T09:46:23;33.80;1.00
19966;DHT22;10144;50.874;4.762;2023-08-21T09:48:50;34.40;1.00
19966;DHT22;10144;50.874;4.762;2023-08-21T09:51:16;34.30;99.90
19966;DHT22;10144;50.874;4.762;2023-08-21T09:53:42;33.70;99.90
19966;DHT22;10144;50.874;4.762;2023-08-21T09:56:08;33.80;99.90
19966;DHT22;10144;50.874;4.762;2023-08-21T09:58:37;33.60;99.90
19966;DHT22;10144;50.874;4.762;2023-08-21T10:01:07;33.70;99.90
19966;DHT22;10144;50.874;4.762;2023-08-21T10:03:39;33.80;99.90
19966;DHT22;10144;50.874;4.762;2023-08-21T10:06:06;34.10;99.90
19966;DHT22;10144;50.874;4.762;2023-08-21T10:08:37;34.20;99.90
19966;DHT22;10144;50.874;4.762;2023-08-21T10:11:06;34.50;99.90
19966;DHT22;10144;50.874;4.762;2023-08-21T10:13:33;34.30;99.90
19966;DHT22;10144;50.874;4.762;2023-08-21T10:16:02;34.00;99.90
19966;DHT22;10144;50.874;4.762;2023-08-21T10:18:33;34.40;99.90
19966;DHT22;10144;50.874;4.762;2023-08-21T10:21:14;34.80;99.90
19966;DHT22;10144;50.874;4.762;2023-08-21T10:23:41;35.30;99.90
19966;DHT22;10144;50.874;4.762;2023-08-21T10:26:09;35.10;99.90
19966;DHT22;10144;50.874;4.762;2023-08-21T10:31:42;34.90;99.90
19966;DHT22;10144;50.874;4.762;2023-08-21T10:34:13;34.50;99.90
19966;DHT22;10144;50.874;4.762;2023-08-21T10:49:53;32.80;99.90
19966;DHT22;10144;50.874;4.762;2023-08-21T10:52:28;32.90;1.00
19966;DHT22;10144;50.874;4.762;2023-08-21T10:54:55;32.40;99.90
19966;DHT22;10144;50.874;4.762;2023-08-21T10:57:26;31.80;99.90
19966;DHT22;10144;50.874;4.762;2023-08-21T11:00:09;31.40;1.00
19966;DHT22;10144;50.874;4.762;2023-08-21T11:02:40;31.70;1.00
19966;DHT22;10144;50.874;4.762;2023-08-21T11:05:07;32.10;1.00
19966;DHT22;10144;50.874;4.762;2023-08-21T11:07:44;32.20;1.00
19966;DHT22;10144;50.874;4.762;2023-08-21T11:10:14;32.70;1.00
19966;DHT22;10144;50.874;4.762;2023-08-21T11:12:56;32.50;1.00
19966;DHT22;10144;50.874;4.762;2023-08-21T11:15:22;32.40;1.00
19966;DHT22;10144;50.874;4.762;2023-08-21T11:18:02;33.00;1.00
19966;DHT22;10144;50.874;4.762;2023-08-21T11:20:32;33.10;1.00
19966;DHT22;10144;50.874;4.762;2023-08-21T11:22:59;33.30;99.90
19966;DHT22;10144;50.874;4.762;2023-08-21T11:25:28;33.80;1.00
19966;DHT22;10144;50.874;4.762;2023-08-21T11:27:54;33.90;1.00
19966;DHT22;10144;50.874;4.762;2023-08-21T11:30:22;33.70;99.90
19966;DHT22;10144;50.874;4.762;2023-08-21T11:32:49;33.20;99.90
19966;DHT22;10144;50.874;4.762;2023-08-21T11:35:16;33.20;1.00
19966;DHT22;10144;50.874;4.762;2023-08-21T11:37:45;32.30;99.90
19966;DHT22;10144;50.874;4.762;2023-08-21T11:40:11;31.50;1.00
19966;DHT22;10144;50.874;4.762;2023-08-21T11:42:38;31.00;1.00
19966;DHT22;10144;50.874;4.762;2023-08-21T11:45:04;31.10;1.00
19966;DHT22;10144;50.874;4.762;2023-08-21T11:47:32;31.30;1.00
19966;DHT22;10144;50.874;4.762;2023-08-21T11:50:02;31.70;1.00
19966;DHT22;10144;50.874;4.762;2023-08-21T11:52:29;32.30;1.00
19966;DHT22;10144;50.874;4.762;2023-08-21T11:54:57;32.80;1.00
19966;DHT22;10144;50.874;4.762;2023-08-21T11:57:23;32.80;99.90
19966;DHT22;10144;50.874;4.762;2023-08-21T11:59:53;33.20;99.90
19966;DHT22;10144;50.874;4.762;2023-08-21T12:02:27;33.30;99.90
19966;DHT22;10144;50.874;4.762;2023-08-21T12:05:04;33.50;99.90
19966;DHT22;10144;50.874;4.762;2023-08-21T12:07:31;33.20;99.90
19966;DHT22;10144;50.874;4.762;2023-08-21T12:09:57;33.00;99.90
19966;DHT22;10144;50.874;4.762;2023-08-21T12:12:23;32.40;99.90
19966;DHT22;10144;50.874;4.762;2023-08-21T12:14:49;31.80;1.00
19966;DHT22;10144;50.874;4.762;2023-08-21T12:17:15;31.30;1.00
19966;DHT22;10144;50.874;4.762;2023-08-21T12:19:40;30.80;1.00
19966;DHT22;10144;50.874;4.762;2023-08-21T12:22:07;30.60;1.00
19966;DHT22;10144;50.874;4.762;2023-08-21T12:24:33;30.50;1.00
19966;DHT22;10144;50.874;4.762;2023-08-21T12:26:59;30.50;1.00
19966;DHT22;10144;50.874;4.762;2023-08-21T12:29:25;30.50;1.00
19966;DHT22;10144;50.874;4.762;2023-08-21T12:31:50;30.60;99.90
19966;DHT22;10144;50.874;4.762;2023-08-21T12:34:16;31.00;1.00
19966;DHT22;10144;50.874;4.762;2023-08-21T12:36:42;31.20;1.00
19966;DHT22;10144;50.874;4.762;2023-08-21T12:39:08;31.40;1.00
19966;DHT22;10144;50.874;4.762;2023-08-21T12:41:34;31.90;1.00
19966;DHT22;10144;50.874;4.762;2023-08-21T12:44:00;32.20;1.00
19966;DHT22;10144;50.874;4.762;2023-08-21T12:46:27;32.50;1.00
19966;DHT22;10144;50.874;4.762;2023-08-21T12:48:53;32.60;1.00
19966;DHT22;10144;50.874;4.762;2023-08-21T12:51:19;32.80;1.00
19966;DHT22;10144;50.874;4.762;2023-08-21T12:53:45;32.70;99.90
19966;DHT22;10144;50.874;4.762;2023-08-21T12:56:10;32.90;99.90
19966;DHT22;10144;50.874;4.762;2023-08-21T12:58:36;33.00;99.90
19966;DHT22;10144;50.874;4.762;2023-08-21T13:01:02;32.90;99.90
19966;DHT22;10144;50.874;4.762;2023-08-21T13:03:32;33.00;99.90
19966;DHT22;10144;50.874;4.762;2023-08-21T13:05:58;33.10;99.90
19966;DHT22;10144;50.874;4.762;2023-08-21T13:08:24;32.80;99.90
19966;DHT22;10144;50.874;4.762;2023-08-21T13:10:49;32.60;99.90
19966;DHT22;10144;50.874;4.762;2023-08-21T13:13:15;32.50;99.90
19966;DHT22;10144;50.874;4.762;2023-08-21T13:15:41;32.60;99.90
19966;DHT22;10144;50.874;4.762;2023-08-21T13:18:10;32.60;99.90
19966;DHT22;10144;50.874;4.762;2023-08-21T13:20:36;32.70;99.90
19966;DHT22;10144;50.874;4.762;2023-08-21T13:23:01;32.80;99.90
19966;DHT22;10144;50.874;4.762;2023-08-21T13:25:27;32.80;99.90
19966;DHT22;10144;50.874;4.762;2023-08-21T13:27:54;32.60;99.90
19966;DHT22;10144;50.874;4.762;2023-08-21T13:30:20;32.50;99.90
19966;DHT22;10144;50.874;4.762;2023-08-21T13:32:46;32.20;99.90
19966;DHT22;10144;50.874;4.762;2023-08-21T13:35:11;31.80;99.90
19966;DHT22;10144;50.874;4.762;2023-08-21T13:37:37;31.60;99.90
19966;DHT22;10144;50.874;4.762;2023-08-21T13:40:05;31.70;99.90
19966;DHT22;10144;50.874;4.762;2023-08-21T13:42:37;31.80;99.90
19966;DHT22;10144;50.874;4.762;2023-08-21T13:45:10;31.80;1.00
19966;DHT22;10144;50.874;4.762;2023-08-21T13:47:41;31.80;99.90
19966;DHT22;10144;50.874;4.762;2023-08-21T13:50:07;31.60;99.90
19966;DHT22;10144;50.874;4.762;2023-08-21T13:52:33;31.60;99.90
19966;DHT22;10144;50.874;4.762;2023-08-21T13:55:00;31.50;1.00
19966;DHT22;10144;50.874;4.762;2023-08-21T13:57:26;31.40;1.00
19966;DHT22;10144;50.874;4.762;2023-08-21T13:59:52;31.40;1.00
19966;DHT22;10144;50.874;4.762;2023-08-21T14:02:18;31.30;1.00
19966;DHT22;10144;50.874;4.762;2023-08-21T14:04:45;31.30;99.90
19966;DHT22;10144;50.874;4.762;2023-08-21T14:07:11;31.20;99.90
19966;DHT22;10144;50.874;4.762;2023-08-21T14:09:37;30.80;1.00
19966;DHT22;10144;50.874;4.762;2023-08-21T14:12:03;30.70;1.00
19966;DHT22;10144;50.874;4.762;2023-08-21T14:14:29;30.50;1.00
19966;DHT22;10144;50.874;4.762;2023-08-21T14:16:55;30.40;1.00
19966;DHT22;10144;50.874;4.762;2023-08-21T14:19:20;30.30;1.00
19966;DHT22;10144;50.874;4.762;2023-08-21T14:21:47;30.20;1.00
19966;DHT22;10144;50.874;4.762;2023-08-21T14:24:13;30.00;1.00
19966;DHT22;10144;50.874;4.762;2023-08-21T14:26:38;29.80;1.00
19966;DHT22;10144;50.874;4.762;2023-08-21T14:29:05;29.50;1.00
19966;DHT22;10144;50.874;4.762;2023-08-21T14:31:31;29.50;1.00
19966;DHT22;10144;50.874;4.762;2023-08-21T14:33:57;29.50;1.00
19966;DHT22;10144;50.874;4.762;2023-08-21T14:36:23;29.30;1.00
19966;DHT22;10144;50.874;4.762;2023-08-21T14:38:49;29.30;1.00
19966;DHT22;10144;50.874;4.762;2023-08-21T14:41:16;29.30;1.00
19966;DHT22;10144;50.874;4.762;2023-08-21T14:43:42;29.20;1.00
19966;DHT22;10144;50.874;4.762;2023-08-21T14:46:08;29.10;1.00
19966;DHT22;10144;50.874;4.762;2023-08-21T14:48:34;29.30;1.00
19966;DHT22;10144;50.874;4.762;2023-08-21T14:50:59;29.30;1.00
19966;DHT22;10144;50.874;4.762;2023-08-21T14:53:25;29.50;1.00
19966;DHT22;10144;50.874;4.762;2023-08-21T14:55:51;29.60;1.00
19966;DHT22;10144;50.874;4.762;2023-08-21T14:58:16;29.60;1.00
19966;DHT22;10144;50.874;4.762;2023-08-21T15:00:42;29.60;1.00
19966;DHT22;10144;50.874;4.762;2023-08-21T15:03:08;29.70;1.00
19966;DHT22;10144;50.874;4.762;2023-08-21T15:05:33;29.80;1.00
19966;DHT22;10144;50.874;4.762;2023-08-21T15:07:59;29.80;1.00
19966;DHT22;10144;50.874;4.762;2023-08-21T15:10:27;29.90;1.00
19966;DHT22;10144;50.874;4.762;2023-08-21T15:12:53;29.90;1.00
19966;DHT22;10144;50.874;4.762;2023-08-21T15:15:19;29.90;1.00
19966;DHT22;10144;50.874;4.762;2023-08-21T15:17:46;29.90;1.00
19966;DHT22;10144;50.874;4.762;2023-08-21T15:20:12;30.00;1.00
19966;DHT22;10144;50.874;4.762;2023-08-21T15:22:40;30.00;1.00
19966;DHT22;10144;50.874;4.762;2023-08-21T15:25:06;30.00;1.00
19966;DHT22;10144;50.874;4.762;2023-08-21T15:27:32;30.10;1.00
19966;DHT22;10144;50.874;4.762;2023-08-21T15:29:57;30.00;1.00
19966;DHT22;10144;50.874;4.762;2023-08-21T15:32:23;30.00;1.00
19966;DHT22;10144;50.874;4.762;2023-08-21T15:34:49;30.00;1.00
19966;DHT22;10144;50.874;4.762;2023-08-21T15:37:15;30.00;1.00
19966;DHT22;10144;50.874;4.762;2023-08-21T15:39:41;30.10;1.00
19966;DHT22;10144;50.874;4.762;2023-08-21T15:42:10;30.00;1.00
19966;DHT22;10144;50.874;4.762;2023-08-21T15:44:38;29.90;1.00
19966;DHT22;10144;50.874;4.762;2023-08-21T15:47:06;29.80;1.00
19966;DHT22;10144;50.874;4.762;2023-08-21T15:49:31;29.80;1.00
19966;DHT22;10144;50.874;4.762;2023-08-21T15:51:58;29.80;1.00
19966;DHT22;10144;50.874;4.762;2023-08-21T15:54:30;29.80;1.00
19966;DHT22;10144;50.874;4.762;2023-08-21T15:56:58;29.80;1.00